createdAt,value
2024-02-08T00:00:26.788Z,5.04
2024-02-08T00:01:26.840Z,5.05
2024-02-08T00:02:26.798Z,5.05
2024-02-08T00:03:26.737Z,5.02
2024-02-08T00:04:26.769Z,5.02
2024-02-08T00:05:26.750Z,5.06
2024-02-08T00:06:26.715Z,5.06
2024-02-08T00:07:26.593Z,5.08
2024-02-08T00:08:26.589Z,5.09
2024-02-08T00:09:26.572Z,5.09
2024-02-08T00:10:26.598Z,5.11
2024-02-08T00:11:26.521Z,5.09
2024-02-08T00:12:26.511Z,5.09
2024-02-08T00:13:26.562Z,5.11
2024-02-08T00:14:26.469Z,5.09
2024-02-08T00:15:26.476Z,5.09
2024-02-08T00:16:26.467Z,5.05
2024-02-08T00:17:26.517Z,5.02
2024-02-08T00:18:26.964Z,5.02
2024-02-08T00:19:26.453Z,5.02
2024-02-08T00:20:26.395Z,5.02
2024-02-08T00:21:26.382Z,5.02
2024-02-08T00:22:26.398Z,5.02
2024-02-08T00:23:26.398Z,5.04
2024-02-08T00:24:26.351Z,5.04
2024-02-08T00:25:26.370Z,5.05
2024-02-08T00:26:26.314Z,5.06
2024-02-08T00:27:26.310Z,5.08
2024-02-08T00:28:26.337Z,5.09
2024-02-08T00:29:26.289Z,5.11
2024-02-08T00:30:26.259Z,5.11
2024-02-08T00:31:26.281Z,5.12
2024-02-08T00:32:26.322Z,5.11
2024-02-08T00:33:26.258Z,5.09
2024-02-08T00:34:26.303Z,5.12
2024-02-08T00:35:26.261Z,5.09
2024-02-08T00:36:26.179Z,5.08
2024-02-08T00:37:26.188Z,5.06
2024-02-08T00:38:26.300Z,5.02
2024-02-08T00:39:26.160Z,5.04
2024-02-08T00:40:26.164Z,5.04
2024-02-08T00:41:26.168Z,5.01
2024-02-08T00:42:26.108Z,5.01
2024-02-08T00:43:26.161Z,5.01
2024-02-08T00:44:26.095Z,5.02
2024-02-08T00:45:26.066Z,5.02
2024-02-08T00:46:26.126Z,5.04
2024-02-08T00:47:26.144Z,5.05
2024-02-08T00:48:26.147Z,5.08
2024-02-08T00:49:26.099Z,5.05
2024-02-08T00:50:26.006Z,5.08
2024-02-08T00:51:25.989Z,5.06
2024-02-08T00:52:26.011Z,5.08
2024-02-08T00:53:25.993Z,5.05
2024-02-08T00:54:25.948Z,5.06
2024-02-08T00:55:25.968Z,5.06
2024-02-08T00:56:25.932Z,5.08
2024-02-08T00:57:25.913Z,5.06
2024-02-08T00:58:26.039Z,5.05
2024-02-08T00:59:25.915Z,5.06
2024-02-08T01:00:25.866Z,5.05
2024-02-08T01:01:25.947Z,5.08
2024-02-08T01:02:25.857Z,5.09
2024-02-08T01:03:26.144Z,5.11
2024-02-08T01:04:25.863Z,5.11
2024-02-08T01:05:25.901Z,5.09
2024-02-08T01:06:25.903Z,5.11
2024-02-08T01:07:25.806Z,5.12
2024-02-08T01:08:25.768Z,5.11
2024-02-08T01:09:25.780Z,5.12
2024-02-08T01:10:25.761Z,5.08
2024-02-08T01:11:25.729Z,5.05
2024-02-08T01:12:25.731Z,5.06
2024-02-08T01:13:25.789Z,5.06
2024-02-08T01:14:25.715Z,5.05
2024-02-08T01:15:25.714Z,5.04
2024-02-08T01:16:25.756Z,5.05
2024-02-08T01:17:25.715Z,5.08
2024-02-08T01:18:25.692Z,5.09
2024-02-08T01:19:25.674Z,5.09
2024-02-08T01:20:25.604Z,5.09
2024-02-08T01:21:25.607Z,5.11
2024-02-08T01:22:25.625Z,5.09
2024-02-08T01:23:25.573Z,5.08
2024-02-08T01:24:25.575Z,5.06
2024-02-08T01:25:25.621Z,5.02
2024-02-08T01:26:25.528Z,5.02
2024-02-08T01:27:25.532Z,5.01
2024-02-08T01:28:25.573Z,4.99
2024-02-08T01:29:25.692Z,4.97
2024-02-08T01:30:25.632Z,4.97
2024-02-08T01:31:25.525Z,5.01
2024-02-08T01:32:25.483Z,4.97
2024-02-08T01:33:25.458Z,5.01
2024-02-08T01:34:25.653Z,4.99
2024-02-08T01:35:25.448Z,5.01
2024-02-08T01:36:25.415Z,5.02
2024-02-08T01:37:25.471Z,5.04
2024-02-08T01:38:25.386Z,5.05
2024-02-08T01:39:25.369Z,5.06
2024-02-08T01:40:25.437Z,5.05
2024-02-08T01:41:25.335Z,5.04
2024-02-08T01:42:25.333Z,5.02
2024-02-08T01:43:25.346Z,4.99
2024-02-08T01:44:25.306Z,4.99
2024-02-08T01:45:25.284Z,5.02
2024-02-08T01:46:25.300Z,4.99
2024-02-08T01:47:25.291Z,5.02
2024-02-08T01:48:25.345Z,4.97
2024-02-08T01:49:25.285Z,4.97
2024-02-08T01:50:25.234Z,4.99
2024-02-08T01:51:25.205Z,4.97
2024-02-08T01:52:25.272Z,4.97
2024-02-08T01:53:25.210Z,5.01
2024-02-08T01:54:25.183Z,5.04
2024-02-08T01:55:25.212Z,5.02
2024-02-08T01:56:25.146Z,4.99
2024-02-08T01:57:25.120Z,4.99
2024-02-08T01:58:25.169Z,4.99
2024-02-08T01:59:25.121Z,4.99
2024-02-08T02:00:25.105Z,4.99
2024-02-08T02:01:25.147Z,5.01
2024-02-08T02:02:25.067Z,4.99
2024-02-08T02:03:25.202Z,4.99
2024-02-08T02:04:25.145Z,5.01
2024-02-08T02:05:25.096Z,5.04
2024-02-08T02:06:25.040Z,5.04
2024-02-08T02:07:25.037Z,5.05
2024-02-08T02:08:25.180Z,5.04
2024-02-08T02:09:25.646Z,5.05
2024-02-08T02:10:25.004Z,5.05
2024-02-08T02:11:25.011Z,5.05
2024-02-08T02:12:24.947Z,5.04
2024-02-08T02:13:24.966Z,5.04
2024-02-08T02:14:24.920Z,5.05
2024-02-08T02:15:24.906Z,5.05
2024-02-08T02:16:24.924Z,5.06
2024-02-08T02:17:24.907Z,5.06
2024-02-08T02:18:24.995Z,5.06
2024-02-08T02:19:24.892Z,5.08
2024-02-08T02:20:24.838Z,5.08
2024-02-08T02:21:24.821Z,5.06
2024-02-08T02:22:24.861Z,5.08
2024-02-08T02:23:24.788Z,5.05
2024-02-08T02:24:24.818Z,5.06
2024-02-08T02:25:24.787Z,5.05
2024-02-08T02:26:24.748Z,5.05
2024-02-08T02:27:24.747Z,5.04
2024-02-08T02:28:24.794Z,5.06
2024-02-08T02:29:24.723Z,5.08
2024-02-08T02:30:24.710Z,5.08
2024-02-08T02:31:24.701Z,5.08
2024-02-08T02:32:24.895Z,5.06
2024-02-08T02:33:24.697Z,5.08
2024-02-08T02:34:24.692Z,5.06
2024-02-08T02:35:24.648Z,5.04
2024-02-08T02:36:24.631Z,5.02
2024-02-08T02:37:24.653Z,5.01
2024-02-08T02:38:24.599Z,5.01
2024-02-08T02:39:24.588Z,4.99
2024-02-08T02:40:24.898Z,4.97
2024-02-08T02:41:24.564Z,4.99
2024-02-08T02:42:24.543Z,4.97
2024-02-08T02:43:24.540Z,5.01
2024-02-08T02:44:24.534Z,4.99
2024-02-08T02:45:24.513Z,5.02
2024-02-08T02:46:24.546Z,5.04
2024-02-08T02:47:24.485Z,5.02
2024-02-08T02:48:24.528Z,5.05
2024-02-08T02:49:24.497Z,5.05
2024-02-08T02:50:24.558Z,5.06
2024-02-08T02:51:24.433Z,5.08
2024-02-08T02:52:24.441Z,5.06
2024-02-08T02:53:24.420Z,5.08
2024-02-08T02:54:24.397Z,5.08
2024-02-08T02:55:24.477Z,5.08
2024-02-08T02:56:24.373Z,5.06
2024-02-08T02:57:24.372Z,5.08
2024-02-08T02:58:24.424Z,5.06
2024-02-08T02:59:24.347Z,5.06
2024-02-08T03:00:24.306Z,5.05
2024-02-08T03:01:24.401Z,5.06
2024-02-08T03:02:24.346Z,5.05
2024-02-08T03:03:24.294Z,5.08
2024-02-08T03:04:24.296Z,5.06
2024-02-08T03:05:24.432Z,5.06
2024-02-08T03:06:24.245Z,5.05
2024-02-08T03:07:24.312Z,5.06
2024-02-08T03:08:24.338Z,5.05
2024-02-08T03:09:24.231Z,5.04
2024-02-08T03:10:24.280Z,5.02
2024-02-08T03:11:24.222Z,5.05
2024-02-08T03:12:24.156Z,5.05
2024-02-08T03:13:24.255Z,5.05
2024-02-08T03:14:24.154Z,5.02
2024-02-08T03:15:24.159Z,5.01
2024-02-08T03:16:24.199Z,4.99
2024-02-08T03:17:24.079Z,5.01
2024-02-08T03:18:24.072Z,5.02
2024-02-08T03:19:24.115Z,5.04
2024-02-08T03:20:24.116Z,5.04
2024-02-08T03:21:24.062Z,5.04
2024-02-08T03:22:24.220Z,5.02
2024-02-08T03:23:24.010Z,5.02
2024-02-08T03:24:23.991Z,5.01
2024-02-08T03:25:24.013Z,5.02
2024-02-08T03:26:23.976Z,5.05
2024-02-08T03:27:23.970Z,5.05
2024-02-08T03:28:24.034Z,5.04
2024-02-08T03:29:23.944Z,5.02
2024-02-08T03:30:24.376Z,5.02
2024-02-08T03:31:23.914Z,5.04
2024-02-08T03:32:23.909Z,5.05
2024-02-08T03:33:23.938Z,5.05
2024-02-08T03:34:23.931Z,5.08
2024-02-08T03:35:23.931Z,5.08
2024-02-08T03:36:23.837Z,5.09
2024-02-08T03:37:23.830Z,5.11
2024-02-08T03:38:23.843Z,5.09
2024-02-08T03:39:23.809Z,5.11
2024-02-08T03:40:23.811Z,5.08
2024-02-08T03:41:23.777Z,5.06
2024-02-08T03:42:23.850Z,5.05
2024-02-08T03:43:23.753Z,5.04
2024-02-08T03:44:23.756Z,5.02
2024-02-08T03:45:23.730Z,5.02
2024-02-08T03:46:23.713Z,5.01
2024-02-08T03:47:23.848Z,5.01
2024-02-08T03:48:23.747Z,5.01
2024-02-08T03:49:23.676Z,5.02
2024-02-08T03:50:23.705Z,5.02
2024-02-08T03:51:23.673Z,4.99
2024-02-08T03:52:23.642Z,4.97
2024-02-08T03:53:23.648Z,4.97
2024-02-08T03:54:23.611Z,4.97
2024-02-08T03:55:23.604Z,5.01
2024-02-08T03:56:23.593Z,4.99
2024-02-08T03:57:23.571Z,5.01
2024-02-08T03:58:23.583Z,5.02
2024-02-08T03:59:23.561Z,5.02
2024-02-08T04:00:23.561Z,5.04
2024-02-08T04:01:23.555Z,5.02
2024-02-08T04:02:23.638Z,5.02
2024-02-08T04:03:23.521Z,4.99
2024-02-08T04:04:23.491Z,4.97
2024-02-08T04:05:23.763Z,4.97
2024-02-08T04:06:23.481Z,4.99
2024-02-08T04:07:24.034Z,4.99
2024-02-08T04:08:23.458Z,5.01
2024-02-08T04:09:24.957Z,5.04
2024-02-08T04:10:23.416Z,4.99
2024-02-08T04:11:23.383Z,5.02
2024-02-08T04:12:30.952Z,5.01
2024-02-08T04:13:23.388Z,5.04
2024-02-08T04:14:23.373Z,5.02
2024-02-08T04:15:25.979Z,5.02
2024-02-08T04:16:23.376Z,5.01
2024-02-08T04:17:23.312Z,5.01
2024-02-08T04:18:23.426Z,5.02
2024-02-08T04:19:23.309Z,5.01
2024-02-08T04:20:23.322Z,5.01
2024-02-08T04:21:23.300Z,5.01
2024-02-08T04:22:23.254Z,5.02
2024-02-08T04:23:23.232Z,5.02
2024-02-08T04:24:23.219Z,5.02
2024-02-08T04:25:23.220Z,5.05
2024-02-08T04:26:23.193Z,5.06
2024-02-08T04:27:23.210Z,5.05
2024-02-08T04:28:23.180Z,5.06
2024-02-08T04:29:23.165Z,5.05
2024-02-08T04:30:23.154Z,5.05
2024-02-08T04:31:23.122Z,5.02
2024-02-08T04:32:23.346Z,5.01
2024-02-08T04:33:23.267Z,5.01
2024-02-08T04:34:23.130Z,4.97
2024-02-08T04:35:23.110Z,4.96
2024-02-08T04:36:23.096Z,4.94
2024-02-08T04:37:23.072Z,4.94
2024-02-08T04:38:23.045Z,4.97
2024-02-08T04:39:23.023Z,4.96
2024-02-08T04:40:23.057Z,4.94
2024-02-08T04:41:23.045Z,4.91
2024-02-08T04:42:23.002Z,4.93
2024-02-08T04:43:22.986Z,4.91
2024-02-08T04:44:22.977Z,4.93
2024-02-08T04:45:22.969Z,4.91
2024-02-08T04:46:22.927Z,4.93
2024-02-08T04:47:22.950Z,4.93
2024-02-08T04:48:22.993Z,4.94
2024-02-08T04:49:22.890Z,4.97
2024-02-08T04:50:22.973Z,4.97
2024-02-08T04:51:22.904Z,4.97
2024-02-08T04:52:22.886Z,4.99
2024-02-08T04:53:22.872Z,5.02
2024-02-08T04:54:22.839Z,5.02
2024-02-08T04:55:22.864Z,5.02
2024-02-08T04:56:22.863Z,5.02
2024-02-08T04:57:22.827Z,5.02
2024-02-08T04:59:23.932Z,5.01
2024-02-08T05:00:22.905Z,5.01
2024-02-08T05:01:22.798Z,5.01
2024-02-08T05:02:22.757Z,4.99
2024-02-08T05:03:22.762Z,4.99
2024-02-08T05:04:22.958Z,4.97
2024-02-08T05:05:22.757Z,4.97
2024-02-08T05:06:23.241Z,4.97
2024-02-08T05:07:22.724Z,4.97
2024-02-08T05:08:22.646Z,4.99
2024-02-08T05:09:22.669Z,5.02
2024-02-08T05:10:22.686Z,4.99
2024-02-08T05:11:22.645Z,4.97
2024-02-08T05:12:22.616Z,4.97
2024-02-08T05:13:22.629Z,4.97
2024-02-08T05:14:22.593Z,4.99
2024-02-08T05:15:22.613Z,5.01
2024-02-08T05:16:22.713Z,5.04
2024-02-08T05:17:22.546Z,5.02
2024-02-08T05:18:22.627Z,5.02
2024-02-08T05:19:22.602Z,5.02
2024-02-08T05:20:22.508Z,5.02
2024-02-08T05:21:22.481Z,5.02
2024-02-08T05:22:22.531Z,5.05
2024-02-08T05:23:22.508Z,5.06
2024-02-08T05:24:22.463Z,5.05
2024-02-08T05:25:26.235Z,5.05
2024-02-08T05:26:22.449Z,5.04
2024-02-08T05:27:22.420Z,5.02
2024-02-08T05:28:22.481Z,5.04
2024-02-08T05:29:22.384Z,5.04
2024-02-08T05:30:22.372Z,5.05
2024-02-08T05:31:22.460Z,5.05
2024-02-08T05:32:22.344Z,5.04
2024-02-08T05:33:22.376Z,5.04
2024-02-08T05:34:22.443Z,5.02
2024-02-08T05:35:22.438Z,5.01
2024-02-08T05:36:22.313Z,5.02
2024-02-08T05:37:22.334Z,5.05
2024-02-08T05:38:22.260Z,5.06
2024-02-08T05:39:22.249Z,5.08
2024-02-08T05:40:22.324Z,5.09
2024-02-08T05:41:22.210Z,5.11
2024-02-08T05:42:22.215Z,5.11
2024-02-08T05:43:22.319Z,5.11
2024-02-08T05:44:22.214Z,5.14
2024-02-08T05:45:22.183Z,5.12
2024-02-08T05:46:22.295Z,5.14
2024-02-08T05:47:22.177Z,5.12
2024-02-08T05:48:22.168Z,5.12
2024-02-08T05:49:24.629Z,5.12
2024-02-08T05:50:22.110Z,5.12
2024-02-08T05:51:22.305Z,5.12
2024-02-08T05:52:22.142Z,5.12
2024-02-08T05:53:22.072Z,5.14
2024-02-08T05:54:22.264Z,5.12
2024-02-08T05:55:22.119Z,5.14
2024-02-08T05:56:22.028Z,5.14
2024-02-08T05:57:22.066Z,5.12
2024-02-08T05:58:22.009Z,5.12
2024-02-08T05:59:21.995Z,5.14
2024-02-08T06:00:21.977Z,5.14
2024-02-08T06:01:22.069Z,5.15
2024-02-08T06:02:21.989Z,5.12
2024-02-08T06:03:22.005Z,5.14
2024-02-08T06:04:22.018Z,5.11
2024-02-08T06:05:21.947Z,5.14
2024-02-08T06:06:21.907Z,5.12
2024-02-08T06:07:22.755Z,5.12
2024-02-08T06:08:21.953Z,5.11
2024-02-08T06:09:21.852Z,5.12
2024-02-08T06:10:21.920Z,5.12
2024-02-08T06:11:21.832Z,5.12
2024-02-08T06:12:21.861Z,5.12
2024-02-08T06:13:21.862Z,5.14
2024-02-08T06:14:21.814Z,5.15
2024-02-08T06:15:21.813Z,5.12
2024-02-08T06:16:21.816Z,5.14
2024-02-08T06:17:21.772Z,5.12
2024-02-08T06:18:21.871Z,5.12
2024-02-08T06:19:21.909Z,5.14
2024-02-08T06:20:21.763Z,5.12
2024-02-08T06:21:21.694Z,5.14
2024-02-08T06:22:21.991Z,5.15
2024-02-08T06:23:21.681Z,5.15
2024-02-08T06:24:21.666Z,5.12
2024-02-08T06:25:21.668Z,5.12
2024-02-08T06:26:21.633Z,5.12
2024-02-08T06:27:21.643Z,5.11
2024-02-08T06:28:21.702Z,5.09
2024-02-08T06:29:21.647Z,5.08
2024-02-08T06:30:21.585Z,5.05
2024-02-08T06:31:21.631Z,5.05
2024-02-08T06:32:21.597Z,5.04
2024-02-08T06:33:21.657Z,5.01
2024-02-08T06:34:21.654Z,4.99
2024-02-08T06:35:21.610Z,5.01
2024-02-08T06:36:21.509Z,5.01
2024-02-08T06:37:21.595Z,5.02
2024-02-08T06:38:21.469Z,5.01
2024-02-08T06:39:21.773Z,4.97
2024-02-08T06:40:21.474Z,4.94
2024-02-08T06:41:21.437Z,4.93
2024-02-08T06:42:21.432Z,4.94
2024-02-08T06:43:21.586Z,4.96
2024-02-08T06:44:21.403Z,4.94
2024-02-08T06:45:21.388Z,4.94
2024-02-08T06:46:21.470Z,4.93
2024-02-08T06:47:21.397Z,4.93
2024-02-08T06:48:21.419Z,4.94
2024-02-08T06:49:21.562Z,4.94
2024-02-08T06:50:21.331Z,4.96
2024-02-08T06:51:21.328Z,4.94
2024-02-08T06:52:21.450Z,4.94
2024-02-08T06:53:21.402Z,4.94
2024-02-08T06:54:21.344Z,4.94
2024-02-08T06:55:21.410Z,4.96
2024-02-08T06:56:21.267Z,4.96
2024-02-08T06:57:21.239Z,4.97
2024-02-08T06:58:21.256Z,4.97
2024-02-08T06:59:21.219Z,4.97
2024-02-08T07:00:21.213Z,4.97
2024-02-08T07:01:21.270Z,5.01
2024-02-08T07:02:21.171Z,5.01
2024-02-08T07:03:21.227Z,5.02
2024-02-08T07:04:21.345Z,5.04
2024-02-08T07:05:21.137Z,5.05
2024-02-08T07:06:21.161Z,5.06
2024-02-08T07:07:21.250Z,5.06
2024-02-08T07:08:21.307Z,5.09
2024-02-08T07:09:21.093Z,5.11
2024-02-08T07:10:21.136Z,5.11
2024-02-08T07:11:21.061Z,5.09
2024-02-08T07:12:21.034Z,5.09
2024-02-08T07:13:21.100Z,5.09
2024-02-08T07:14:21.010Z,5.11
2024-02-08T07:15:21.001Z,5.08
2024-02-08T07:16:21.066Z,5.08
2024-02-08T07:17:20.992Z,5.08
2024-02-08T07:18:21.108Z,5.08
2024-02-08T07:19:21.071Z,5.08
2024-02-08T07:20:21.049Z,5.09
2024-02-08T07:21:20.932Z,5.11
2024-02-08T07:22:20.949Z,5.11
2024-02-08T07:23:20.904Z,5.11
2024-02-08T07:24:20.895Z,5.11
2024-02-08T07:25:20.975Z,5.09
2024-02-08T07:26:20.856Z,5.11
2024-02-08T07:27:20.850Z,5.12
2024-02-08T07:28:20.953Z,5.12
2024-02-08T07:29:20.846Z,5.15
2024-02-08T07:30:20.811Z,5.15
2024-02-08T07:31:20.839Z,5.17
2024-02-08T07:32:20.778Z,5.17
2024-02-08T07:33:20.807Z,5.17
2024-02-08T07:34:20.849Z,5.19
2024-02-08T07:35:20.757Z,5.19
2024-02-08T07:36:23.060Z,5.22
2024-02-08T07:37:20.812Z,5.22
2024-02-08T07:38:20.726Z,5.22
2024-02-08T07:39:20.705Z,5.20
2024-02-08T07:40:20.683Z,5.22
2024-02-08T07:41:20.653Z,5.19
2024-02-08T07:42:20.652Z,5.19
2024-02-08T07:43:20.731Z,5.17
2024-02-08T07:44:20.625Z,5.17
2024-02-08T07:45:20.610Z,5.15
2024-02-08T07:46:20.674Z,5.14
2024-02-08T07:47:20.586Z,5.14
2024-02-08T07:48:20.664Z,5.14
2024-02-08T07:49:20.626Z,5.12
2024-02-08T07:50:20.552Z,5.14
2024-02-08T07:51:20.544Z,5.12
2024-02-08T07:52:21.520Z,5.17
2024-02-08T07:53:20.714Z,5.15
2024-02-08T07:54:20.493Z,5.17
2024-02-08T07:55:20.544Z,5.19
2024-02-08T07:56:20.474Z,5.20
2024-02-08T07:57:20.473Z,5.20
2024-02-08T07:58:20.492Z,5.20
2024-02-08T07:59:20.453Z,5.20
2024-02-08T08:00:20.420Z,5.22
2024-02-08T08:01:20.586Z,5.20
2024-02-08T08:02:20.429Z,5.19
2024-02-08T08:03:20.410Z,5.20
2024-02-08T08:04:20.516Z,5.20
2024-02-08T08:05:20.430Z,5.17
2024-02-08T08:06:20.446Z,5.12
2024-02-08T08:07:20.383Z,5.09
2024-02-08T08:08:20.328Z,5.09
2024-02-08T08:09:20.756Z,5.09
2024-02-08T08:10:20.327Z,5.08
2024-02-08T08:11:20.315Z,5.09
2024-02-08T08:12:22.418Z,5.08
2024-02-08T08:13:20.568Z,5.09
2024-02-08T08:14:20.246Z,5.08
2024-02-08T08:15:20.226Z,5.06
2024-02-08T08:16:20.260Z,5.05
2024-02-08T08:17:20.201Z,5.04
2024-02-08T08:18:20.235Z,5.06
2024-02-08T08:19:20.337Z,5.08
2024-02-08T08:20:20.253Z,5.11
2024-02-08T08:21:20.307Z,5.09
2024-02-08T08:22:21.145Z,5.15
2024-02-08T08:23:20.370Z,5.15
2024-02-08T08:24:20.239Z,5.19
2024-02-08T08:25:20.130Z,5.19
2024-02-08T08:26:20.141Z,5.19
2024-02-08T08:27:20.066Z,5.20
2024-02-08T08:28:20.099Z,5.24
2024-02-08T08:29:20.061Z,5.24
2024-02-08T08:30:20.030Z,5.23
2024-02-08T08:31:20.049Z,5.24
2024-02-08T08:32:20.005Z,5.26
2024-02-08T08:33:20.046Z,5.24
2024-02-08T08:34:20.208Z,5.29
2024-02-08T08:35:28.945Z,5.27
2024-02-08T08:36:20.197Z,5.29
2024-02-08T08:37:20.013Z,5.29
2024-02-08T08:38:20.369Z,5.29
2024-02-08T08:39:19.924Z,5.27
2024-02-08T08:40:19.935Z,5.26
2024-02-08T08:41:20.270Z,5.27
2024-02-08T08:42:19.858Z,5.29
2024-02-08T08:43:19.983Z,5.29
2024-02-08T08:44:20.312Z,5.32
2024-02-08T08:45:19.895Z,5.35
2024-02-08T08:46:19.838Z,5.37
2024-02-08T08:47:19.890Z,5.41
2024-02-08T08:48:19.850Z,5.41
2024-02-08T08:49:19.902Z,5.41
2024-02-08T08:50:20.034Z,5.42
2024-02-08T08:51:19.759Z,5.42
2024-02-08T08:52:19.783Z,5.45
2024-02-08T08:53:19.739Z,5.48
2024-02-08T08:54:19.738Z,5.48
2024-02-08T08:55:19.854Z,5.47
2024-02-08T08:56:19.697Z,5.47
2024-02-08T08:57:19.690Z,5.44
2024-02-08T08:58:19.702Z,5.44
2024-02-08T08:59:19.692Z,5.45
2024-02-08T09:00:19.620Z,5.47
2024-02-08T09:01:20.465Z,5.48
2024-02-08T09:02:19.688Z,5.49
2024-02-08T09:03:19.633Z,5.51
2024-02-08T09:04:19.633Z,5.49
2024-02-08T09:05:19.644Z,5.51
2024-02-08T09:06:19.590Z,5.52
2024-02-08T09:07:19.605Z,5.56
2024-02-08T09:08:19.723Z,5.58
2024-02-08T09:09:19.551Z,5.59
2024-02-08T09:10:19.536Z,5.60
2024-02-08T09:11:19.501Z,5.58
2024-02-08T09:12:19.532Z,5.59
2024-02-08T09:13:19.488Z,5.58
2024-02-08T09:14:19.477Z,5.58
2024-02-08T09:15:19.439Z,5.58
2024-02-08T09:16:19.516Z,5.58
2024-02-08T09:17:24.925Z,5.60
2024-02-08T09:18:20.514Z,5.62
2024-02-08T09:19:19.465Z,5.63
2024-02-08T09:20:19.491Z,5.63
2024-02-08T09:21:19.398Z,5.66
2024-02-08T09:22:19.835Z,5.67
2024-02-08T09:23:19.384Z,5.69
2024-02-08T09:24:19.785Z,5.66
2024-02-08T09:25:27.888Z,5.63
2024-02-08T09:26:20.293Z,5.66
2024-02-08T09:27:19.303Z,5.67
2024-02-08T09:28:19.282Z,5.66
2024-02-08T09:29:19.277Z,5.66
2024-02-08T09:30:19.235Z,5.66
2024-02-08T09:31:19.310Z,5.66
2024-02-08T09:32:19.212Z,5.69
2024-02-08T09:33:19.251Z,5.66
2024-02-08T09:34:19.447Z,5.67
2024-02-08T09:35:19.340Z,5.67
2024-02-08T09:36:19.212Z,5.69
2024-02-08T09:37:19.224Z,5.69
2024-02-08T09:38:19.149Z,5.69
2024-02-08T09:39:19.168Z,5.69
2024-02-08T09:40:19.223Z,5.69
2024-02-08T09:41:19.160Z,5.70
2024-02-08T09:42:19.092Z,5.70
2024-02-08T09:43:19.635Z,5.73
2024-02-08T09:44:19.087Z,5.70
2024-02-08T09:45:19.088Z,5.73
2024-02-08T09:46:19.240Z,5.73
2024-02-08T09:47:19.030Z,5.74
2024-02-08T09:48:19.086Z,5.74
2024-02-08T09:49:19.546Z,5.74
2024-02-08T09:50:19.033Z,5.70
2024-02-08T09:51:19.033Z,5.70
2024-02-08T09:52:19.003Z,5.73
2024-02-08T09:53:19.223Z,5.74
2024-02-08T09:54:18.977Z,5.75
2024-02-08T09:55:19.117Z,5.75
2024-02-08T09:56:19.031Z,5.74
2024-02-08T09:57:18.888Z,5.69
2024-02-08T09:58:18.939Z,5.67
2024-02-08T09:59:18.975Z,5.70
2024-02-08T10:00:18.851Z,5.73
2024-02-08T10:01:18.927Z,5.74
2024-02-08T10:02:18.872Z,5.74
2024-02-08T10:03:18.824Z,5.77
2024-02-08T10:04:19.704Z,5.77
2024-02-08T10:05:18.890Z,5.78
2024-02-08T10:06:18.842Z,5.77
2024-02-08T10:07:18.798Z,5.78
2024-02-08T10:08:18.748Z,5.81
2024-02-08T10:09:19.865Z,5.81
2024-02-08T10:10:18.773Z,5.83
2024-02-08T10:11:18.717Z,5.83
2024-02-08T10:12:18.713Z,5.84
2024-02-08T10:13:18.724Z,5.81
2024-02-08T10:14:18.723Z,5.81
2024-02-08T10:15:18.686Z,5.80
2024-02-08T10:16:18.711Z,5.83
2024-02-08T10:17:18.655Z,5.83
2024-02-08T10:18:18.696Z,5.81
2024-02-08T10:19:18.798Z,5.84
2024-02-08T10:20:18.827Z,5.81
2024-02-08T10:21:18.588Z,5.81
2024-02-08T10:22:18.615Z,5.83
2024-02-08T10:23:18.567Z,5.83
2024-02-08T10:24:19.036Z,5.83
2024-02-08T10:25:18.580Z,5.80
2024-02-08T10:26:18.544Z,5.80
2024-02-08T10:27:18.578Z,5.80
2024-02-08T10:28:18.578Z,5.78
2024-02-08T10:29:18.506Z,5.78
2024-02-08T10:30:26.392Z,5.74
2024-02-08T10:31:18.507Z,5.73
2024-02-08T10:32:18.510Z,5.77
2024-02-08T10:33:18.471Z,5.77
2024-02-08T10:34:18.627Z,5.75
2024-02-08T10:35:18.553Z,5.77
2024-02-08T10:36:18.422Z,5.75
2024-02-08T10:37:18.420Z,5.74
2024-02-08T10:38:18.353Z,5.77
2024-02-08T10:39:18.329Z,5.77
2024-02-08T10:40:18.356Z,5.75
2024-02-08T10:41:18.307Z,5.75
2024-02-08T10:42:18.310Z,5.78
2024-02-08T10:43:19.264Z,5.80
2024-02-08T10:44:18.347Z,5.81
2024-02-08T10:45:18.266Z,5.81
2024-02-08T10:46:18.582Z,5.81
2024-02-08T10:47:28.471Z,5.83
2024-02-08T10:48:19.302Z,5.80
2024-02-08T10:49:18.283Z,5.80
2024-02-08T10:50:18.431Z,5.80
2024-02-08T10:51:18.225Z,5.78
2024-02-08T10:52:18.376Z,5.77
2024-02-08T10:53:18.164Z,5.78
2024-02-08T10:54:18.184Z,5.77
2024-02-08T10:55:18.147Z,5.78
2024-02-08T10:56:18.129Z,5.74
2024-02-08T10:57:18.166Z,5.75
2024-02-08T10:58:18.214Z,5.75
2024-02-08T10:59:18.076Z,5.75
2024-02-08T11:00:18.080Z,5.78
2024-02-08T11:01:18.156Z,5.80
2024-02-08T11:02:18.101Z,5.81
2024-02-08T11:03:18.056Z,5.81
2024-02-08T11:04:18.104Z,5.80
2024-02-08T11:05:18.073Z,5.80
2024-02-08T11:06:18.053Z,5.81
2024-02-08T11:07:18.129Z,5.81
2024-02-08T11:08:18.002Z,5.81
2024-02-08T11:09:17.989Z,5.83
2024-02-08T11:10:18.007Z,5.81
2024-02-08T11:11:17.941Z,5.81
2024-02-08T11:12:18.625Z,5.78
2024-02-08T11:13:18.020Z,5.75
2024-02-08T11:14:17.950Z,5.78
2024-02-08T11:15:17.864Z,5.80
2024-02-08T11:16:17.897Z,5.80
2024-02-08T11:17:17.861Z,5.81
2024-02-08T11:18:17.908Z,5.81
2024-02-08T11:19:17.927Z,5.83
2024-02-08T11:20:17.898Z,5.83
2024-02-08T11:21:17.794Z,5.83
2024-02-08T11:22:17.802Z,5.83
2024-02-08T11:23:17.759Z,5.83
2024-02-08T11:24:17.777Z,5.85
2024-02-08T11:25:17.784Z,5.84
2024-02-08T11:26:17.725Z,5.83
2024-02-08T11:27:17.697Z,5.81
2024-02-08T11:28:26.378Z,5.83
2024-02-08T11:30:29.120Z,5.81
2024-02-08T11:31:36.973Z,5.81
2024-02-08T11:32:29.132Z,5.83
2024-02-08T11:33:29.085Z,5.84
2024-02-08T11:34:29.230Z,5.85
2024-02-08T11:35:29.184Z,5.87
2024-02-08T11:36:29.092Z,5.88
2024-02-08T11:37:29.058Z,5.88
2024-02-08T11:38:29.017Z,5.88
2024-02-08T11:39:29.264Z,5.88
2024-02-08T11:40:29.028Z,5.92
2024-02-08T11:41:28.968Z,5.92
2024-02-08T11:42:28.949Z,5.93
2024-02-08T11:43:28.991Z,5.93
2024-02-08T11:44:28.935Z,5.92
2024-02-08T11:45:28.930Z,5.92
2024-02-08T11:46:29.006Z,5.90
2024-02-08T11:47:28.940Z,5.93
2024-02-08T11:48:29.049Z,5.93
2024-02-08T11:49:28.913Z,5.95
2024-02-08T11:50:28.897Z,5.95
2024-02-08T11:51:28.880Z,5.93
2024-02-08T11:52:28.911Z,5.93
2024-02-08T11:53:28.842Z,5.95
2024-02-08T11:54:28.858Z,5.95
2024-02-08T11:55:28.828Z,5.95
2024-02-08T11:56:28.801Z,5.98
2024-02-08T11:57:28.778Z,6.01
2024-02-08T11:58:28.852Z,6.03
2024-02-08T11:59:28.735Z,6.03
2024-02-08T12:00:28.760Z,6.06
2024-02-08T12:01:28.838Z,6.08
2024-02-08T12:02:28.815Z,6.08
2024-02-08T12:03:28.712Z,6.08
2024-02-08T12:04:28.795Z,6.11
2024-02-08T12:05:29.432Z,6.11
2024-02-08T12:06:28.704Z,6.13
2024-02-08T12:07:28.742Z,6.11
2024-02-08T12:08:37.085Z,6.14
2024-02-08T12:09:29.652Z,6.16
2024-02-08T12:10:28.648Z,6.17
2024-02-08T12:11:28.581Z,6.17
2024-02-08T12:12:28.576Z,6.16
2024-02-08T12:13:28.602Z,6.14
2024-02-08T12:14:28.799Z,6.14
2024-02-08T12:15:28.548Z,6.16
2024-02-08T12:16:28.546Z,6.14
2024-02-08T12:17:28.525Z,6.13
2024-02-08T12:18:29.482Z,6.11
2024-02-08T12:19:28.559Z,6.11
2024-02-08T12:20:28.476Z,6.14
2024-02-08T12:21:28.446Z,6.14
2024-02-08T12:22:28.454Z,6.19
2024-02-08T12:23:28.428Z,6.19
2024-02-08T12:24:28.413Z,6.20
2024-02-08T12:25:28.692Z,6.24
2024-02-08T12:26:28.406Z,6.25
2024-02-08T12:27:28.379Z,6.27
2024-02-08T12:28:28.579Z,6.27
2024-02-08T12:29:28.352Z,6.28
2024-02-08T12:30:28.332Z,6.28
2024-02-08T12:31:28.405Z,6.28
2024-02-08T12:32:31.399Z,6.28
2024-02-08T12:33:28.477Z,6.28
2024-02-08T12:34:28.481Z,6.30
2024-02-08T12:35:28.379Z,6.30
2024-02-08T12:36:28.258Z,6.30
2024-02-08T12:37:28.331Z,6.30
2024-02-08T12:38:28.280Z,6.30
2024-02-08T12:39:28.225Z,6.28
2024-02-08T12:40:28.264Z,6.28
2024-02-08T12:41:28.203Z,6.30
2024-02-08T12:42:28.188Z,6.32
2024-02-08T12:43:28.252Z,6.30
2024-02-08T12:44:28.207Z,6.32
2024-02-08T12:45:28.164Z,6.33
2024-02-08T12:46:28.187Z,6.38
2024-02-08T12:47:28.246Z,6.38
2024-02-08T12:48:28.220Z,6.38
2024-02-08T12:49:28.346Z,6.38
2024-02-08T12:50:29.655Z,6.38
2024-02-08T12:51:28.137Z,6.39
2024-02-08T12:52:28.182Z,6.40
2024-02-08T12:53:28.130Z,6.42
2024-02-08T12:54:28.146Z,6.42
2024-02-08T12:55:28.108Z,6.42
2024-02-08T12:56:28.082Z,6.43
2024-02-08T12:57:27.997Z,6.43
2024-02-08T12:58:28.186Z,6.43
2024-02-08T12:59:27.970Z,6.43
2024-02-08T13:00:27.961Z,6.43
2024-02-08T13:01:28.050Z,6.45
2024-02-08T13:02:28.083Z,6.45
2024-02-08T13:03:28.075Z,6.45
2024-02-08T13:04:28.151Z,6.45
2024-02-08T13:05:28.086Z,6.45
2024-02-08T13:06:27.919Z,6.46
2024-02-08T13:07:27.990Z,6.48
2024-02-08T13:08:27.933Z,6.46
2024-02-08T13:09:28.447Z,6.48
2024-02-08T13:10:27.922Z,6.48
2024-02-08T13:11:27.845Z,6.51
2024-02-08T13:12:27.798Z,6.50
2024-02-08T13:13:27.835Z,6.50
2024-02-08T13:14:27.757Z,6.53
2024-02-08T13:15:27.762Z,6.54
2024-02-08T13:16:27.819Z,6.57
2024-02-08T13:17:27.787Z,6.57
2024-02-08T13:18:27.725Z,6.57
2024-02-08T13:19:27.820Z,6.60
2024-02-08T13:20:27.834Z,6.60